sensor_id;sensor_type;location;lat;lon;timestamp;P1;durP1;ratioP1;P2;durP2;ratioP2
38455;SDS011;24237;50.106;20.014;2024-02-23T00:00:00;2.50;;;1.48;;
38455;SDS011;24237;50.106;20.014;2024-02-23T00:02:30;2.85;;;1.70;;
38455;SDS011;24237;50.106;20.014;2024-02-23T00:04:56;11.73;;;1.15;;
38455;SDS011;24237;50.106;20.014;2024-02-23T00:07:22;2.38;;;1.25;;
38455;SDS011;24237;50.106;20.014;2024-02-23T00:09:48;3.25;;;1.95;;
38455;SDS011;24237;50.106;20.014;2024-02-23T00:12:13;4.53;;;1.40;;
38455;SDS011;24237;50.106;20.014;2024-02-23T00:14:39;2.40;;;1.38;;
38455;SDS011;24237;50.106;20.014;2024-02-23T00:17:05;6.95;;;1.42;;
38455;SDS011;24237;50.106;20.014;2024-02-23T00:19:31;7.80;;;2.50;;
38455;SDS011;24237;50.106;20.014;2024-02-23T00:21:57;4.70;;;2.00;;
38455;SDS011;24237;50.106;20.014;2024-02-23T00:24:24;2.22;;;1.55;;
38455;SDS011;24237;50.106;20.014;2024-02-23T00:26:50;2.08;;;1.38;;
38455;SDS011;24237;50.106;20.014;2024-02-23T00:29:16;3.92;;;1.30;;
38455;SDS011;24237;50.106;20.014;2024-02-23T00:31:42;3.63;;;1.90;;
38455;SDS011;24237;50.106;20.014;2024-02-23T00:34:10;5.28;;;1.52;;
38455;SDS011;24237;50.106;20.014;2024-02-23T00:36:38;2.60;;;1.77;;
38455;SDS011;24237;50.106;20.014;2024-02-23T00:39:05;1.92;;;1.48;;
38455;SDS011;24237;50.106;20.014;2024-02-23T00:41:32;4.28;;;1.70;;
38455;SDS011;24237;50.106;20.014;2024-02-23T00:43:58;1.83;;;1.27;;
38455;SDS011;24237;50.106;20.014;2024-02-23T00:46:24;8.20;;;1.60;;
38455;SDS011;24237;50.106;20.014;2024-02-23T00:48:49;3.70;;;1.63;;
38455;SDS011;24237;50.106;20.014;2024-02-23T00:51:18;3.55;;;1.40;;
38455;SDS011;24237;50.106;20.014;2024-02-23T00:53:43;3.83;;;1.30;;
38455;SDS011;24237;50.106;20.014;2024-02-23T00:56:09;2.08;;;1.23;;
38455;SDS011;24237;50.106;20.014;2024-02-23T00:58:35;1.75;;;1.13;;
38455;SDS011;24237;50.106;20.014;2024-02-23T01:01:00;3.35;;;1.80;;
38455;SDS011;24237;50.106;20.014;2024-02-23T01:03:26;3.45;;;1.50;;
38455;SDS011;24237;50.106;20.014;2024-02-23T01:05:52;2.25;;;1.23;;
38455;SDS011;24237;50.106;20.014;2024-02-23T01:08:17;5.80;;;1.40;;
38455;SDS011;24237;50.106;20.014;2024-02-23T01:10:44;2.47;;;1.27;;
38455;SDS011;24237;50.106;20.014;2024-02-23T01:13:10;3.65;;;1.30;;
38455;SDS011;24237;50.106;20.014;2024-02-23T01:15:35;2.08;;;1.20;;
38455;SDS011;24237;50.106;20.014;2024-02-23T01:18:01;1.77;;;1.13;;
38455;SDS011;24237;50.106;20.014;2024-02-23T01:20:27;3.10;;;1.70;;
38455;SDS011;24237;50.106;20.014;2024-02-23T01:22:53;5.55;;;2.00;;
38455;SDS011;24237;50.106;20.014;2024-02-23T01:25:18;5.55;;;1.50;;
38455;SDS011;24237;50.106;20.014;2024-02-23T01:27:44;1.85;;;1.27;;
38455;SDS011;24237;50.106;20.014;2024-02-23T01:30:10;2.83;;;1.50;;
38455;SDS011;24237;50.106;20.014;2024-02-23T01:32:36;2.78;;;1.50;;
38455;SDS011;24237;50.106;20.014;2024-02-23T01:35:04;8.10;;;1.83;;
38455;SDS011;24237;50.106;20.014;2024-02-23T01:37:30;4.10;;;1.55;;
38455;SDS011;24237;50.106;20.014;2024-02-23T01:39:57;6.55;;;2.40;;
38455;SDS011;24237;50.106;20.014;2024-02-23T01:42:24;3.83;;;1.65;;
38455;SDS011;24237;50.106;20.014;2024-02-23T01:44:50;4.20;;;1.75;;
38455;SDS011;24237;50.106;20.014;2024-02-23T01:47:16;3.08;;;1.67;;
38455;SDS011;24237;50.106;20.014;2024-02-23T01:49:43;2.35;;;1.67;;
38455;SDS011;24237;50.106;20.014;2024-02-23T01:52:11;3.03;;;1.70;;
38455;SDS011;24237;50.106;20.014;2024-02-23T01:54:39;5.00;;;2.00;;
38455;SDS011;24237;50.106;20.014;2024-02-23T01:57:05;2.70;;;1.70;;
38455;SDS011;24237;50.106;20.014;2024-02-23T01:59:33;4.32;;;1.60;;
38455;SDS011;24237;50.106;20.014;2024-02-23T02:02:02;4.30;;;2.17;;
38455;SDS011;24237;50.106;20.014;2024-02-23T02:04:28;4.82;;;2.42;;
38455;SDS011;24237;50.106;20.014;2024-02-23T02:06:54;3.55;;;2.13;;
38455;SDS011;24237;50.106;20.014;2024-02-23T02:09:22;3.20;;;1.92;;
38455;SDS011;24237;50.106;20.014;2024-02-23T02:11:48;4.40;;;2.10;;
38455;SDS011;24237;50.106;20.014;2024-02-23T02:14:14;3.42;;;2.00;;
38455;SDS011;24237;50.106;20.014;2024-02-23T02:16:41;3.92;;;2.20;;
38455;SDS011;24237;50.106;20.014;2024-02-23T02:19:06;3.58;;;1.90;;
38455;SDS011;24237;50.106;20.014;2024-02-23T02:21:32;3.65;;;2.17;;
38455;SDS011;24237;50.106;20.014;2024-02-23T02:23:59;3.70;;;2.35;;
38455;SDS011;24237;50.106;20.014;2024-02-23T02:26:25;4.03;;;2.70;;
38455;SDS011;24237;50.106;20.014;2024-02-23T02:28:50;5.75;;;2.72;;
38455;SDS011;24237;50.106;20.014;2024-02-23T02:31:17;5.67;;;2.70;;
38455;SDS011;24237;50.106;20.014;2024-02-23T02:33:43;4.38;;;2.75;;
38455;SDS011;24237;50.106;20.014;2024-02-23T02:36:11;3.17;;;2.30;;
38455;SDS011;24237;50.106;20.014;2024-02-23T02:38:36;5.65;;;2.53;;
38455;SDS011;24237;50.106;20.014;2024-02-23T02:41:02;5.15;;;2.50;;
38455;SDS011;24237;50.106;20.014;2024-02-23T02:44:15;4.93;;;2.20;;
38455;SDS011;24237;50.106;20.014;2024-02-23T02:46:41;7.28;;;3.20;;
38455;SDS011;24237;50.106;20.014;2024-02-23T02:49:07;3.85;;;2.60;;
38455;SDS011;24237;50.106;20.014;2024-02-23T02:51:33;5.45;;;2.58;;
38455;SDS011;24237;50.106;20.014;2024-02-23T02:54:01;5.68;;;2.00;;
38455;SDS011;24237;50.106;20.014;2024-02-23T02:56:26;5.20;;;2.45;;
38455;SDS011;24237;50.106;20.014;2024-02-23T02:58:52;4.20;;;2.65;;
38455;SDS011;24237;50.106;20.014;2024-02-23T03:01:18;3.97;;;2.33;;
38455;SDS011;24237;50.106;20.014;2024-02-23T03:03:43;2.97;;;2.08;;
38455;SDS011;24237;50.106;20.014;2024-02-23T03:06:09;5.03;;;2.40;;
38455;SDS011;24237;50.106;20.014;2024-02-23T03:08:34;6.05;;;2.50;;
38455;SDS011;24237;50.106;20.014;2024-02-23T03:11:00;5.80;;;2.80;;
38455;SDS011;24237;50.106;20.014;2024-02-23T03:13:26;5.18;;;2.70;;
38455;SDS011;24237;50.106;20.014;2024-02-23T03:15:52;4.18;;;2.35;;
38455;SDS011;24237;50.106;20.014;2024-02-23T03:18:17;5.45;;;2.70;;
38455;SDS011;24237;50.106;20.014;2024-02-23T03:20:43;4.53;;;2.38;;
38455;SDS011;24237;50.106;20.014;2024-02-23T03:23:09;6.97;;;2.22;;
38455;SDS011;24237;50.106;20.014;2024-02-23T03:25:35;6.10;;;2.93;;
38455;SDS011;24237;50.106;20.014;2024-02-23T03:28:01;7.20;;;3.03;;
38455;SDS011;24237;50.106;20.014;2024-02-23T03:30:27;4.22;;;2.28;;
38455;SDS011;24237;50.106;20.014;2024-02-23T03:32:52;3.90;;;2.47;;
38455;SDS011;24237;50.106;20.014;2024-02-23T03:35:18;5.93;;;2.58;;
38455;SDS011;24237;50.106;20.014;2024-02-23T03:37:44;5.15;;;2.15;;
38455;SDS011;24237;50.106;20.014;2024-02-23T03:40:10;3.78;;;2.30;;
38455;SDS011;24237;50.106;20.014;2024-02-23T03:42:36;3.87;;;2.03;;
38455;SDS011;24237;50.106;20.014;2024-02-23T03:45:02;3.35;;;2.22;;
38455;SDS011;24237;50.106;20.014;2024-02-23T03:47:28;6.85;;;2.60;;
38455;SDS011;24237;50.106;20.014;2024-02-23T03:49:53;3.42;;;2.63;;
38455;SDS011;24237;50.106;20.014;2024-02-23T03:52:19;5.13;;;2.40;;
38455;SDS011;24237;50.106;20.014;2024-02-23T03:54:45;4.35;;;2.42;;
38455;SDS011;24237;50.106;20.014;2024-02-23T03:57:10;6.07;;;2.13;;
38455;SDS011;24237;50.106;20.014;2024-02-23T03:59:36;3.35;;;2.20;;
38455;SDS011;24237;50.106;20.014;2024-02-23T04:02:02;4.95;;;2.05;;
38455;SDS011;24237;50.106;20.014;2024-02-23T04:04:29;5.93;;;2.00;;
38455;SDS011;24237;50.106;20.014;2024-02-23T04:06:54;3.15;;;2.08;;
38455;SDS011;24237;50.106;20.014;2024-02-23T04:09:20;4.30;;;2.33;;
38455;SDS011;24237;50.106;20.014;2024-02-23T04:11:47;3.42;;;2.05;;
38455;SDS011;24237;50.106;20.014;2024-02-23T04:16:39;3.80;;;2.20;;
38455;SDS011;24237;50.106;20.014;2024-02-23T04:19:04;3.00;;;2.25;;
38455;SDS011;24237;50.106;20.014;2024-02-23T04:21:30;4.50;;;1.90;;
38455;SDS011;24237;50.106;20.014;2024-02-23T04:23:56;6.00;;;2.38;;
38455;SDS011;24237;50.106;20.014;2024-02-23T04:26:21;4.15;;;2.33;;
38455;SDS011;24237;50.106;20.014;2024-02-23T04:28:47;3.47;;;2.17;;
38455;SDS011;24237;50.106;20.014;2024-02-23T04:31:12;3.80;;;2.33;;
38455;SDS011;24237;50.106;20.014;2024-02-23T04:33:38;2.95;;;2.22;;
38455;SDS011;24237;50.106;20.014;2024-02-23T04:36:04;6.55;;;2.83;;
38455;SDS011;24237;50.106;20.014;2024-02-23T04:38:31;6.37;;;2.70;;
38455;SDS011;24237;50.106;20.014;2024-02-23T04:40:57;3.35;;;2.28;;
38455;SDS011;24237;50.106;20.014;2024-02-23T04:43:24;3.28;;;1.95;;
38455;SDS011;24237;50.106;20.014;2024-02-23T04:45:50;6.63;;;2.53;;
38455;SDS011;24237;50.106;20.014;2024-02-23T04:48:16;4.20;;;2.15;;
38455;SDS011;24237;50.106;20.014;2024-02-23T04:50:41;5.85;;;2.17;;
38455;SDS011;24237;50.106;20.014;2024-02-23T04:53:07;6.45;;;3.03;;
38455;SDS011;24237;50.106;20.014;2024-02-23T04:55:33;4.15;;;2.55;;
38455;SDS011;24237;50.106;20.014;2024-02-23T04:57:58;6.00;;;2.40;;
38455;SDS011;24237;50.106;20.014;2024-02-23T05:00:24;4.22;;;2.47;;
38455;SDS011;24237;50.106;20.014;2024-02-23T05:02:53;4.35;;;2.60;;
38455;SDS011;24237;50.106;20.014;2024-02-23T05:05:19;4.88;;;2.40;;
38455;SDS011;24237;50.106;20.014;2024-02-23T05:07:47;3.80;;;2.35;;
38455;SDS011;24237;50.106;20.014;2024-02-23T05:10:12;5.25;;;2.78;;
38455;SDS011;24237;50.106;20.014;2024-02-23T05:12:38;3.58;;;2.40;;
38455;SDS011;24237;50.106;20.014;2024-02-23T05:15:04;4.68;;;2.90;;
38455;SDS011;24237;50.106;20.014;2024-02-23T05:17:29;7.90;;;2.67;;
38455;SDS011;24237;50.106;20.014;2024-02-23T05:19:55;7.00;;;2.50;;
38455;SDS011;24237;50.106;20.014;2024-02-23T05:22:21;4.88;;;2.50;;
38455;SDS011;24237;50.106;20.014;2024-02-23T05:24:46;6.75;;;3.10;;
38455;SDS011;24237;50.106;20.014;2024-02-23T05:27:12;4.68;;;2.42;;
38455;SDS011;24237;50.106;20.014;2024-02-23T05:29:37;4.57;;;2.72;;
38455;SDS011;24237;50.106;20.014;2024-02-23T05:32:03;4.82;;;2.90;;
38455;SDS011;24237;50.106;20.014;2024-02-23T05:34:29;8.18;;;3.00;;
38455;SDS011;24237;50.106;20.014;2024-02-23T05:36:55;7.30;;;3.08;;
38455;SDS011;24237;50.106;20.014;2024-02-23T05:39:21;8.07;;;3.42;;
38455;SDS011;24237;50.106;20.014;2024-02-23T05:41:46;7.97;;;3.47;;
38455;SDS011;24237;50.106;20.014;2024-02-23T05:44:12;10.45;;;3.42;;
38455;SDS011;24237;50.106;20.014;2024-02-23T05:46:38;6.20;;;3.50;;
38455;SDS011;24237;50.106;20.014;2024-02-23T05:49:04;11.68;;;5.90;;
38455;SDS011;24237;50.106;20.014;2024-02-23T05:51:30;12.80;;;7.63;;
38455;SDS011;24237;50.106;20.014;2024-02-23T05:53:56;15.05;;;7.68;;
38455;SDS011;24237;50.106;20.014;2024-02-23T05:56:22;15.05;;;7.95;;
38455;SDS011;24237;50.106;20.014;2024-02-23T05:58:51;14.43;;;8.07;;
38455;SDS011;24237;50.106;20.014;2024-02-23T06:01:17;12.07;;;5.85;;
38455;SDS011;24237;50.106;20.014;2024-02-23T06:03:43;8.23;;;4.75;;
38455;SDS011;24237;50.106;20.014;2024-02-23T06:06:09;11.13;;;5.97;;
38455;SDS011;24237;50.106;20.014;2024-02-23T06:08:36;14.45;;;7.07;;
38455;SDS011;24237;50.106;20.014;2024-02-23T06:11:02;15.77;;;7.55;;
38455;SDS011;24237;50.106;20.014;2024-02-23T06:13:32;13.93;;;8.47;;
38455;SDS011;24237;50.106;20.014;2024-02-23T06:15:58;16.00;;;8.50;;
38455;SDS011;24237;50.106;20.014;2024-02-23T06:18:24;17.20;;;7.57;;
38455;SDS011;24237;50.106;20.014;2024-02-23T06:20:50;16.10;;;6.95;;
38455;SDS011;24237;50.106;20.014;2024-02-23T06:23:16;12.35;;;6.55;;
38455;SDS011;24237;50.106;20.014;2024-02-23T06:25:42;14.05;;;6.82;;
38455;SDS011;24237;50.106;20.014;2024-02-23T06:28:09;9.65;;;3.95;;
38455;SDS011;24237;50.106;20.014;2024-02-23T06:30:35;10.00;;;4.75;;
38455;SDS011;24237;50.106;20.014;2024-02-23T06:33:01;10.77;;;5.13;;
38455;SDS011;24237;50.106;20.014;2024-02-23T06:35:27;17.60;;;6.40;;
38455;SDS011;24237;50.106;20.014;2024-02-23T06:37:52;16.52;;;8.88;;
38455;SDS011;24237;50.106;20.014;2024-02-23T06:40:18;7.88;;;5.10;;
38455;SDS011;24237;50.106;20.014;2024-02-23T06:42:44;13.05;;;5.03;;
38455;SDS011;24237;50.106;20.014;2024-02-23T06:45:09;11.50;;;5.20;;
38455;SDS011;24237;50.106;20.014;2024-02-23T06:47:35;10.98;;;4.72;;
38455;SDS011;24237;50.106;20.014;2024-02-23T06:50:01;20.55;;;10.27;;
38455;SDS011;24237;50.106;20.014;2024-02-23T06:52:28;24.08;;;10.25;;
38455;SDS011;24237;50.106;20.014;2024-02-23T06:54:54;18.67;;;8.63;;
38455;SDS011;24237;50.106;20.014;2024-02-23T06:57:19;20.30;;;9.57;;
38455;SDS011;24237;50.106;20.014;2024-02-23T06:59:45;29.50;;;9.90;;
38455;SDS011;24237;50.106;20.014;2024-02-23T07:02:11;17.13;;;8.50;;
38455;SDS011;24237;50.106;20.014;2024-02-23T07:04:36;16.98;;;8.63;;
38455;SDS011;24237;50.106;20.014;2024-02-23T07:07:02;15.32;;;8.32;;
38455;SDS011;24237;50.106;20.014;2024-02-23T07:09:32;14.05;;;7.57;;
38455;SDS011;24237;50.106;20.014;2024-02-23T07:11:58;14.00;;;7.78;;
38455;SDS011;24237;50.106;20.014;2024-02-23T07:14:24;14.63;;;8.20;;
38455;SDS011;24237;50.106;20.014;2024-02-23T07:16:49;11.70;;;7.65;;
38455;SDS011;24237;50.106;20.014;2024-02-23T07:19:16;11.45;;;7.47;;
38455;SDS011;24237;50.106;20.014;2024-02-23T07:21:42;13.88;;;7.13;;
38455;SDS011;24237;50.106;20.014;2024-02-23T07:24:07;10.40;;;4.90;;
38455;SDS011;24237;50.106;20.014;2024-02-23T07:26:33;8.88;;;4.28;;
38455;SDS011;24237;50.106;20.014;2024-02-23T07:28:58;12.57;;;4.00;;
38455;SDS011;24237;50.106;20.014;2024-02-23T07:31:24;11.30;;;3.92;;
38455;SDS011;24237;50.106;20.014;2024-02-23T07:33:50;11.50;;;3.97;;
38455;SDS011;24237;50.106;20.014;2024-02-23T07:36:16;14.27;;;4.50;;
38455;SDS011;24237;50.106;20.014;2024-02-23T07:38:42;16.13;;;4.25;;
38455;SDS011;24237;50.106;20.014;2024-02-23T07:41:11;7.72;;;4.43;;
38455;SDS011;24237;50.106;20.014;2024-02-23T07:43:38;16.65;;;5.10;;
38455;SDS011;24237;50.106;20.014;2024-02-23T07:46:04;13.55;;;4.72;;
38455;SDS011;24237;50.106;20.014;2024-02-23T07:48:33;8.80;;;4.47;;
38455;SDS011;24237;50.106;20.014;2024-02-23T07:50:59;10.07;;;4.57;;
38455;SDS011;24237;50.106;20.014;2024-02-23T07:53:24;8.65;;;4.55;;
38455;SDS011;24237;50.106;20.014;2024-02-23T07:55:50;13.63;;;4.63;;
38455;SDS011;24237;50.106;20.014;2024-02-23T07:58:16;11.80;;;4.75;;
38455;SDS011;24237;50.106;20.014;2024-02-23T08:00:41;11.52;;;4.97;;
38455;SDS011;24237;50.106;20.014;2024-02-23T08:03:07;7.88;;;4.85;;
38455;SDS011;24237;50.106;20.014;2024-02-23T08:05:33;11.27;;;4.20;;
38455;SDS011;24237;50.106;20.014;2024-02-23T08:07:59;15.13;;;5.43;;
38455;SDS011;24237;50.106;20.014;2024-02-23T08:10:24;8.38;;;3.97;;
38455;SDS011;24237;50.106;20.014;2024-02-23T08:12:50;12.52;;;3.45;;
38455;SDS011;24237;50.106;20.014;2024-02-23T08:15:16;8.20;;;3.47;;
38455;SDS011;24237;50.106;20.014;2024-02-23T08:17:42;10.85;;;3.85;;
38455;SDS011;24237;50.106;20.014;2024-02-23T08:20:07;8.38;;;3.78;;
38455;SDS011;24237;50.106;20.014;2024-02-23T08:22:33;6.00;;;3.60;;
38455;SDS011;24237;50.106;20.014;2024-02-23T08:24:59;5.82;;;3.47;;
38455;SDS011;24237;50.106;20.014;2024-02-23T08:27:25;9.10;;;3.92;;
38455;SDS011;24237;50.106;20.014;2024-02-23T08:29:50;7.70;;;3.72;;
38455;SDS011;24237;50.106;20.014;2024-02-23T08:32:16;15.25;;;4.30;;
38455;SDS011;24237;50.106;20.014;2024-02-23T08:34:42;12.75;;;5.07;;
38455;SDS011;24237;50.106;20.014;2024-02-23T08:37:08;5.38;;;3.20;;
38455;SDS011;24237;50.106;20.014;2024-02-23T08:39:34;6.65;;;3.83;;
38455;SDS011;24237;50.106;20.014;2024-02-23T08:42:02;8.27;;;3.28;;
38455;SDS011;24237;50.106;20.014;2024-02-23T08:44:28;10.32;;;4.20;;
38455;SDS011;24237;50.106;20.014;2024-02-23T08:46:53;5.97;;;3.22;;
38455;SDS011;24237;50.106;20.014;2024-02-23T08:49:19;9.52;;;4.18;;
38455;SDS011;24237;50.106;20.014;2024-02-23T08:51:45;6.65;;;3.03;;
38455;SDS011;24237;50.106;20.014;2024-02-23T08:54:11;8.93;;;3.10;;
38455;SDS011;24237;50.106;20.014;2024-02-23T08:56:38;7.25;;;3.33;;
38455;SDS011;24237;50.106;20.014;2024-02-23T08:59:07;6.72;;;3.30;;
38455;SDS011;24237;50.106;20.014;2024-02-23T09:01:34;9.02;;;3.95;;
38455;SDS011;24237;50.106;20.014;2024-02-23T09:04:00;7.13;;;3.33;;
38455;SDS011;24237;50.106;20.014;2024-02-23T09:06:25;5.88;;;2.70;;
38455;SDS011;24237;50.106;20.014;2024-02-23T09:08:51;5.95;;;3.30;;
38455;SDS011;24237;50.106;20.014;2024-02-23T09:11:16;9.35;;;2.72;;
38455;SDS011;24237;50.106;20.014;2024-02-23T09:13:42;7.30;;;3.08;;
38455;SDS011;24237;50.106;20.014;2024-02-23T09:16:08;5.15;;;2.88;;
38455;SDS011;24237;50.106;20.014;2024-02-23T09:18:34;9.35;;;2.80;;
38455;SDS011;24237;50.106;20.014;2024-02-23T09:21:00;7.40;;;3.90;;
38455;SDS011;24237;50.106;20.014;2024-02-23T09:23:26;6.03;;;3.58;;
38455;SDS011;24237;50.106;20.014;2024-02-23T09:25:52;9.95;;;3.28;;
38455;SDS011;24237;50.106;20.014;2024-02-23T09:28:17;6.78;;;3.33;;
38455;SDS011;24237;50.106;20.014;2024-02-23T09:30:43;6.97;;;3.67;;
38455;SDS011;24237;50.106;20.014;2024-02-23T09:33:09;7.35;;;3.50;;
38455;SDS011;24237;50.106;20.014;2024-02-23T09:35:34;11.68;;;3.95;;
38455;SDS011;24237;50.106;20.014;2024-02-23T09:38:00;6.97;;;3.40;;
38455;SDS011;24237;50.106;20.014;2024-02-23T09:40:26;9.02;;;3.45;;
38455;SDS011;24237;50.106;20.014;2024-02-23T09:42:55;7.63;;;3.78;;
38455;SDS011;24237;50.106;20.014;2024-02-23T09:45:22;8.20;;;4.30;;
38455;SDS011;24237;50.106;20.014;2024-02-23T09:47:49;7.20;;;3.15;;
38455;SDS011;24237;50.106;20.014;2024-02-23T09:50:16;7.40;;;3.38;;
38455;SDS011;24237;50.106;20.014;2024-02-23T09:52:44;7.75;;;3.92;;
38455;SDS011;24237;50.106;20.014;2024-02-23T09:57:37;12.38;;;3.35;;
38455;SDS011;24237;50.106;20.014;2024-02-23T10:00:03;5.70;;;3.17;;
38455;SDS011;24237;50.106;20.014;2024-02-23T10:02:31;7.82;;;3.47;;
38455;SDS011;24237;50.106;20.014;2024-02-23T10:04:57;5.53;;;2.67;;
38455;SDS011;24237;50.106;20.014;2024-02-23T10:07:26;7.28;;;2.88;;
38455;SDS011;24237;50.106;20.014;2024-02-23T10:09:52;8.90;;;2.75;;
38455;SDS011;24237;50.106;20.014;2024-02-23T10:12:18;5.47;;;2.38;;
38455;SDS011;24237;50.106;20.014;2024-02-23T10:14:44;10.18;;;2.70;;
38455;SDS011;24237;50.106;20.014;2024-02-23T10:17:09;7.65;;;2.78;;
38455;SDS011;24237;50.106;20.014;2024-02-23T10:19:35;7.20;;;2.83;;
38455;SDS011;24237;50.106;20.014;2024-02-23T10:22:01;8.65;;;3.00;;
38455;SDS011;24237;50.106;20.014;2024-02-23T10:24:26;4.10;;;2.45;;
38455;SDS011;24237;50.106;20.014;2024-02-23T10:26:53;8.85;;;2.97;;
38455;SDS011;24237;50.106;20.014;2024-02-23T10:29:18;6.72;;;3.22;;
38455;SDS011;24237;50.106;20.014;2024-02-23T10:31:45;4.95;;;2.53;;
38455;SDS011;24237;50.106;20.014;2024-02-23T10:34:15;6.10;;;2.63;;
38455;SDS011;24237;50.106;20.014;2024-02-23T10:36:44;4.47;;;2.90;;
38455;SDS011;24237;50.106;20.014;2024-02-23T10:39:13;7.45;;;2.78;;
38455;SDS011;24237;50.106;20.014;2024-02-23T10:41:54;6.00;;;3.20;;
38455;SDS011;24237;50.106;20.014;2024-02-23T10:44:26;7.03;;;3.08;;
38455;SDS011;24237;50.106;20.014;2024-02-23T10:46:54;8.50;;;3.00;;
38455;SDS011;24237;50.106;20.014;2024-02-23T10:49:21;6.40;;;3.70;;
38455;SDS011;24237;50.106;20.014;2024-02-23T10:51:51;4.43;;;2.83;;
38455;SDS011;24237;50.106;20.014;2024-02-23T10:54:17;6.65;;;3.10;;
38455;SDS011;24237;50.106;20.014;2024-02-23T10:56:51;7.82;;;3.25;;
38455;SDS011;24237;50.106;20.014;2024-02-23T10:59:18;7.43;;;3.42;;
38455;SDS011;24237;50.106;20.014;2024-02-23T11:01:53;6.28;;;3.17;;
38455;SDS011;24237;50.106;20.014;2024-02-23T11:04:22;7.85;;;3.38;;
38455;SDS011;24237;50.106;20.014;2024-02-23T11:06:52;9.30;;;3.58;;
38455;SDS011;24237;50.106;20.014;2024-02-23T11:09:23;10.93;;;3.97;;
38455;SDS011;24237;50.106;20.014;2024-02-23T11:11:53;9.60;;;3.53;;
38455;SDS011;24237;50.106;20.014;2024-02-23T11:14:34;9.25;;;3.50;;
38455;SDS011;24237;50.106;20.014;2024-02-23T11:17:01;8.20;;;3.47;;
38455;SDS011;24237;50.106;20.014;2024-02-23T11:22:00;7.70;;;3.92;;
38455;SDS011;24237;50.106;20.014;2024-02-23T11:24:28;6.57;;;3.33;;
38455;SDS011;24237;50.106;20.014;2024-02-23T11:26:58;5.30;;;3.20;;
38455;SDS011;24237;50.106;20.014;2024-02-23T11:29:28;5.68;;;2.90;;
38455;SDS011;24237;50.106;20.014;2024-02-23T11:31:54;6.72;;;3.47;;
38455;SDS011;24237;50.106;20.014;2024-02-23T11:34:26;6.32;;;3.35;;
38455;SDS011;24237;50.106;20.014;2024-02-23T11:36:52;5.70;;;3.05;;
38455;SDS011;24237;50.106;20.014;2024-02-23T11:39:18;5.20;;;2.38;;
38455;SDS011;24237;50.106;20.014;2024-02-23T11:41:45;5.68;;;2.70;;
38455;SDS011;24237;50.106;20.014;2024-02-23T11:44:14;6.18;;;2.72;;
38455;SDS011;24237;50.106;20.014;2024-02-23T11:46:42;5.22;;;2.40;;
38455;SDS011;24237;50.106;20.014;2024-02-23T11:49:14;5.05;;;2.63;;
38455;SDS011;24237;50.106;20.014;2024-02-23T11:51:43;6.60;;;2.80;;
38455;SDS011;24237;50.106;20.014;2024-02-23T11:54:09;4.83;;;2.60;;
38455;SDS011;24237;50.106;20.014;2024-02-23T11:56:35;6.25;;;2.72;;
38455;SDS011;24237;50.106;20.014;2024-02-23T11:59:01;8.48;;;2.67;;
38455;SDS011;24237;50.106;20.014;2024-02-23T12:01:28;4.38;;;2.40;;
38455;SDS011;24237;50.106;20.014;2024-02-23T12:03:55;5.80;;;2.90;;
38455;SDS011;24237;50.106;20.014;2024-02-23T12:06:21;4.80;;;2.30;;
38455;SDS011;24237;50.106;20.014;2024-02-23T12:08:47;4.28;;;2.67;;
38455;SDS011;24237;50.106;20.014;2024-02-23T12:11:14;6.30;;;2.85;;
38455;SDS011;24237;50.106;20.014;2024-02-23T12:13:40;4.57;;;2.55;;
38455;SDS011;24237;50.106;20.014;2024-02-23T12:16:09;7.15;;;2.50;;
38455;SDS011;24237;50.106;20.014;2024-02-23T12:18:35;6.15;;;2.95;;
38455;SDS011;24237;50.106;20.014;2024-02-23T12:21:01;5.03;;;2.40;;
38455;SDS011;24237;50.106;20.014;2024-02-23T12:23:42;6.40;;;2.83;;
38455;SDS011;24237;50.106;20.014;2024-02-23T12:26:12;5.35;;;2.63;;
38455;SDS011;24237;50.106;20.014;2024-02-23T12:28:39;5.70;;;2.80;;
38455;SDS011;24237;50.106;20.014;2024-02-23T12:31:05;5.47;;;2.55;;
38455;SDS011;24237;50.106;20.014;2024-02-23T12:33:32;4.57;;;2.40;;
38455;SDS011;24237;50.106;20.014;2024-02-23T12:36:05;7.75;;;2.45;;
38455;SDS011;24237;50.106;20.014;2024-02-23T12:38:32;5.23;;;2.40;;
38455;SDS011;24237;50.106;20.014;2024-02-23T12:40:58;3.83;;;2.67;;
38455;SDS011;24237;50.106;20.014;2024-02-23T12:43:25;6.50;;;2.53;;
38455;SDS011;24237;50.106;20.014;2024-02-23T12:45:51;4.97;;;2.40;;
38455;SDS011;24237;50.106;20.014;2024-02-23T12:48:19;5.93;;;2.50;;
38455;SDS011;24237;50.106;20.014;2024-02-23T12:50:46;4.23;;;2.40;;
38455;SDS011;24237;50.106;20.014;2024-02-23T12:53:34;4.95;;;2.92;;
38455;SDS011;24237;50.106;20.014;2024-02-23T12:56:01;4.22;;;2.63;;
38455;SDS011;24237;50.106;20.014;2024-02-23T12:58:38;3.97;;;2.42;;
38455;SDS011;24237;50.106;20.014;2024-02-23T13:01:09;4.63;;;2.83;;
38455;SDS011;24237;50.106;20.014;2024-02-23T13:03:35;5.50;;;3.08;;
38455;SDS011;24237;50.106;20.014;2024-02-23T13:06:03;5.88;;;3.20;;
38455;SDS011;24237;50.106;20.014;2024-02-23T13:08:30;4.22;;;2.53;;
38455;SDS011;24237;50.106;20.014;2024-02-23T13:10:56;4.28;;;2.97;;
38455;SDS011;24237;50.106;20.014;2024-02-23T13:13:22;7.90;;;2.90;;
38455;SDS011;24237;50.106;20.014;2024-02-23T13:15:49;9.35;;;3.03;;
38455;SDS011;24237;50.106;20.014;2024-02-23T13:18:16;5.03;;;3.00;;
38455;SDS011;24237;50.106;20.014;2024-02-23T13:20:42;4.43;;;2.50;;
38455;SDS011;24237;50.106;20.014;2024-02-23T13:23:08;6.50;;;2.72;;
38455;SDS011;24237;50.106;20.014;2024-02-23T13:25:35;5.43;;;2.80;;
38455;SDS011;24237;50.106;20.014;2024-02-23T13:28:01;8.27;;;3.17;;
38455;SDS011;24237;50.106;20.014;2024-02-23T13:30:27;8.70;;;3.05;;
38455;SDS011;24237;50.106;20.014;2024-02-23T13:32:53;7.47;;;3.00;;
38455;SDS011;24237;50.106;20.014;2024-02-23T13:35:19;6.40;;;3.58;;
38455;SDS011;24237;50.106;20.014;2024-02-23T13:37:45;6.68;;;3.53;;
38455;SDS011;24237;50.106;20.014;2024-02-23T13:40:11;8.20;;;3.40;;
38455;SDS011;24237;50.106;20.014;2024-02-23T13:42:37;6.45;;;3.58;;
38455;SDS011;24237;50.106;20.014;2024-02-23T13:45:06;8.88;;;3.90;;
38455;SDS011;24237;50.106;20.014;2024-02-23T13:47:34;9.65;;;3.50;;
38455;SDS011;24237;50.106;20.014;2024-02-23T13:50:00;9.13;;;3.10;;
38455;SDS011;24237;50.106;20.014;2024-02-23T13:52:26;5.55;;;3.17;;
38455;SDS011;24237;50.106;20.014;2024-02-23T13:54:53;6.03;;;3.58;;
38455;SDS011;24237;50.106;20.014;2024-02-23T13:57:18;6.20;;;3.30;;
38455;SDS011;24237;50.106;20.014;2024-02-23T13:59:45;11.18;;;2.63;;
38455;SDS011;24237;50.106;20.014;2024-02-23T14:02:11;4.28;;;2.47;;
38455;SDS011;24237;50.106;20.014;2024-02-23T14:04:37;5.88;;;3.10;;
38455;SDS011;24237;50.106;20.014;2024-02-23T14:07:03;16.17;;;4.03;;
38455;SDS011;24237;50.106;20.014;2024-02-23T14:09:29;8.02;;;4.85;;
38455;SDS011;24237;50.106;20.014;2024-02-23T14:11:55;8.50;;;3.88;;
38455;SDS011;24237;50.106;20.014;2024-02-23T14:21:05;22.48;;;6.90;;
38455;SDS011;24237;50.106;20.014;2024-02-23T14:23:31;14.43;;;6.45;;
38455;SDS011;24237;50.106;20.014;2024-02-23T14:25:57;23.13;;;7.00;;
38455;SDS011;24237;50.106;20.014;2024-02-23T14:28:22;21.88;;;6.88;;
38455;SDS011;24237;50.106;20.014;2024-02-23T14:30:48;16.15;;;5.47;;
38455;SDS011;24237;50.106;20.014;2024-02-23T14:33:13;25.35;;;6.53;;
38455;SDS011;24237;50.106;20.014;2024-02-23T14:35:39;12.68;;;7.53;;
38455;SDS011;24237;50.106;20.014;2024-02-23T14:38:05;14.43;;;6.70;;
38455;SDS011;24237;50.106;20.014;2024-02-23T14:40:30;15.50;;;6.43;;